Flight Track Log - Related Links

Times and Time Zones

All times are in EDT time to prevent confusion due to time zone crossing. See the N2102C flight status page for this flight to view local times or setup timezone preferences in your user account.

Time Position Orientation Groundspeed Altitude Reporting Facility
EDT Latitude Longitude Course Direction KTS MPH feet Rate Location/Type
Sat 01:13:03 PM 40.4411 -87.4936 North 119 137 3,500  Level Chicago Center
Sat 01:14:05 PM 40.4772 -87.4908 North 113 130 3,100 -242 Descending Chicago Center
Sat 01:15:07 PM 40.5092 -87.4850 North 116 133 3,000  Descending Chicago Center
Sat 01:16:09 PM 40.5406 -87.4742 15° North 116 133 3,100 65 Climbing Chicago Center
Sat 01:18:12 PM 40.6044 -87.4475 18° North 111 128 3,200  Climbing Chicago Center
Sat 01:19:14 PM 40.6356 -87.4383 13° North 112 129 3,100 -97 Descending Chicago Center
Sat 01:20:16 PM 40.6683 -87.4347 North 116 133 3,000 -48 Descending Chicago Center
Sat 01:21:18 PM 40.7008 -87.4328 North 118 136 3,000 48 Level Chicago Center
Sat 01:22:20 PM 40.7317 -87.4314 North 115 132 3,100  Climbing Chicago Center
Sat 01:23:22 PM 40.7717 -87.4292 North 117 135 3,000 -48 Descending Chicago Center
Sat 01:24:24 PM 40.8039 -87.4253 North 117 135 3,000  Level Chicago Center
Sat 01:25:26 PM 40.8378 -87.4222 North 119 137 3,000  Level Chicago Center
Sat 01:26:28 PM 40.8711 -87.4181 North 120 138 3,000 48 Level Chicago Center
Sat 01:27:30 PM 40.9047 -87.4150 North 121 139 3,100 48 Climbing Chicago Center
Sat 01:28:32 PM 40.9372 -87.4139 North 120 138 3,100  Level Chicago Center
Sat 01:29:34 PM 40.9761 -87.4136 360° North 119 137 3,100 -48 Level Chicago Center
Sat 01:30:36 PM 41.0086 -87.4081 North 117 135 3,000 -97 Descending Chicago Center
Sat 01:31:38 PM 41.0406 -87.4058 North 117 135 2,900 -48 Descending Chicago Center
Sat 01:32:40 PM 41.0722 -87.4061 360° North 116 133 2,900 48 Level Chicago Center
Sat 01:33:42 PM 41.1031 -87.4056 North 114 131 3,000 48 Climbing Chicago Center
Sat 01:34:44 PM 41.1400 -87.4042 North 112 129 3,000 -48 Level Chicago Center
Sat 01:35:46 PM 41.1719 -87.4003 North 113 130 2,900 -48 Descending Chicago Center
Sat 01:36:48 PM 41.2039 -87.3947 North 115 132 2,900  Level Chicago Center
Sat 01:37:49 PM 41.2356 -87.3886 North 115 132 2,900 49 Level Chicago Center
Sat 01:38:51 PM 41.2669 -87.3847 North 115 132 3,000 97 Climbing Chicago Center
Sat 01:39:53 PM 41.3047 -87.3814 North 115 132 3,100 97 Climbing Chicago Center

Login

Don't have an account? Register now (free) for customized features, flight alerts, and more!